sensor_id;sensor_type;location;lat;lon;timestamp;temperature;humidity
53520;DHT22;39397;53.204;5.778;2022-09-09T00:00:18;23.00;86.50
53520;DHT22;39397;53.204;5.778;2022-09-09T00:03:02;23.10;86.50
53520;DHT22;39397;53.204;5.778;2022-09-09T00:08:21;23.00;85.40
53520;DHT22;39397;53.204;5.778;2022-09-09T00:10:54;23.00;86.80
53520;DHT22;39397;53.204;5.778;2022-09-09T00:16:32;23.10;85.40
53520;DHT22;39397;53.204;5.778;2022-09-09T00:19:20;23.00;86.90
53520;DHT22;39397;53.204;5.778;2022-09-09T00:22:00;23.10;86.90
53520;DHT22;39397;53.204;5.778;2022-09-09T00:24:32;23.10;87.10
53520;DHT22;39397;53.204;5.778;2022-09-09T00:27:11;23.00;86.80
53520;DHT22;39397;53.204;5.778;2022-09-09T00:29:46;23.00;86.90
53520;DHT22;39397;53.204;5.778;2022-09-09T00:32:16;23.00;86.90
53520;DHT22;39397;53.204;5.778;2022-09-09T00:34:49;23.10;86.80
53520;DHT22;39397;53.204;5.778;2022-09-09T00:37:17;23.10;86.90
53520;DHT22;39397;53.204;5.778;2022-09-09T00:39:47;23.10;86.70
53520;DHT22;39397;53.204;5.778;2022-09-09T00:42:17;23.00;86.70
53520;DHT22;39397;53.204;5.778;2022-09-09T00:47:38;23.00;85.20
53520;DHT22;39397;53.204;5.778;2022-09-09T00:50:20;22.90;85.20
53520;DHT22;39397;53.204;5.778;2022-09-09T00:55:41;23.00;86.90
53520;DHT22;39397;53.204;5.778;2022-09-09T00:58:10;23.00;85.30
53520;DHT22;39397;53.204;5.778;2022-09-09T01:00:50;22.90;86.60
53520;DHT22;39397;53.204;5.778;2022-09-09T01:06:14;22.90;85.30
53520;DHT22;39397;53.204;5.778;2022-09-09T01:11:33;23.00;85.40
53520;DHT22;39397;53.204;5.778;2022-09-09T01:16:59;23.00;85.40
53520;DHT22;39397;53.204;5.778;2022-09-09T01:19:48;22.90;86.80
53520;DHT22;39397;53.204;5.778;2022-09-09T01:22:35;22.90;87.00
53520;DHT22;39397;53.204;5.778;2022-09-09T01:27:53;23.00;85.50
53520;DHT22;39397;53.204;5.778;2022-09-09T01:30:21;22.80;86.80
53520;DHT22;39397;53.204;5.778;2022-09-09T01:32:54;22.80;86.70
53520;DHT22;39397;53.204;5.778;2022-09-09T01:35:45;22.90;86.80
53520;DHT22;39397;53.204;5.778;2022-09-09T01:38:12;22.90;85.40
53520;DHT22;39397;53.204;5.778;2022-09-09T01:40:39;22.90;86.80
53520;DHT22;39397;53.204;5.778;2022-09-09T01:43:05;22.80;86.60
53520;DHT22;39397;53.204;5.778;2022-09-09T01:45:32;22.80;86.60
53520;DHT22;39397;53.204;5.778;2022-09-09T01:47:58;22.80;86.60
53520;DHT22;39397;53.204;5.778;2022-09-09T01:50:24;22.80;86.70
53520;DHT22;39397;53.204;5.778;2022-09-09T01:52:53;22.80;86.60
53520;DHT22;39397;53.204;5.778;2022-09-09T01:55:29;22.90;86.80
53520;DHT22;39397;53.204;5.778;2022-09-09T02:00:44;22.70;85.40
53520;DHT22;39397;53.204;5.778;2022-09-09T02:03:22;22.70;86.90
53520;DHT22;39397;53.204;5.778;2022-09-09T02:06:02;22.80;87.00
53520;DHT22;39397;53.204;5.778;2022-09-09T02:08:42;22.70;87.00
53520;DHT22;39397;53.204;5.778;2022-09-09T02:11:14;22.80;86.90
53520;DHT22;39397;53.204;5.778;2022-09-09T02:13:43;22.70;86.90
53520;DHT22;39397;53.204;5.778;2022-09-09T02:16:15;22.80;86.80
53520;DHT22;39397;53.204;5.778;2022-09-09T02:18:51;22.80;86.80
53520;DHT22;39397;53.204;5.778;2022-09-09T02:21:18;22.70;86.80
53520;DHT22;39397;53.204;5.778;2022-09-09T02:23:47;22.70;86.60
53520;DHT22;39397;53.204;5.778;2022-09-09T02:26:14;22.70;86.70
53520;DHT22;39397;53.204;5.778;2022-09-09T02:28:46;22.70;86.70
53520;DHT22;39397;53.204;5.778;2022-09-09T02:31:14;22.70;86.80
53520;DHT22;39397;53.204;5.778;2022-09-09T02:33:44;22.60;86.70
53520;DHT22;39397;53.204;5.778;2022-09-09T02:36:14;22.60;86.80
53520;DHT22;39397;53.204;5.778;2022-09-09T02:38:46;22.70;86.90
53520;DHT22;39397;53.204;5.778;2022-09-09T02:41:23;22.70;86.90
53520;DHT22;39397;53.204;5.778;2022-09-09T02:43:49;22.70;85.40
53520;DHT22;39397;53.204;5.778;2022-09-09T02:48:59;22.50;86.90
53520;DHT22;39397;53.204;5.778;2022-09-09T02:56:25;22.70;85.50
53520;DHT22;39397;53.204;5.778;2022-09-09T02:58:54;22.60;87.00
53520;DHT22;39397;53.204;5.778;2022-09-09T03:01:20;22.70;87.00
53520;DHT22;39397;53.204;5.778;2022-09-09T03:03:46;22.60;87.00
53520;DHT22;39397;53.204;5.778;2022-09-09T03:06:12;22.50;86.90
53520;DHT22;39397;53.204;5.778;2022-09-09T03:08:38;22.50;86.80
53520;DHT22;39397;53.204;5.778;2022-09-09T03:11:04;22.40;86.80
53520;DHT22;39397;53.204;5.778;2022-09-09T03:13:30;22.50;86.90
53520;DHT22;39397;53.204;5.778;2022-09-09T03:15:55;22.50;86.90
53520;DHT22;39397;53.204;5.778;2022-09-09T03:18:21;22.50;86.80
53520;DHT22;39397;53.204;5.778;2022-09-09T03:20:47;22.60;86.90
53520;DHT22;39397;53.204;5.778;2022-09-09T03:23:16;22.50;85.70
53520;DHT22;39397;53.204;5.778;2022-09-09T03:25:49;22.50;86.90
53520;DHT22;39397;53.204;5.778;2022-09-09T03:28:15;22.50;87.20
53520;DHT22;39397;53.204;5.778;2022-09-09T03:30:41;22.50;86.90
53520;DHT22;39397;53.204;5.778;2022-09-09T03:33:07;22.40;86.80
53520;DHT22;39397;53.204;5.778;2022-09-09T03:35:32;22.50;86.90
53520;DHT22;39397;53.204;5.778;2022-09-09T03:37:58;22.50;86.80
53520;DHT22;39397;53.204;5.778;2022-09-09T03:40:23;22.50;86.80
53520;DHT22;39397;53.204;5.778;2022-09-09T03:42:49;22.50;86.80
53520;DHT22;39397;53.204;5.778;2022-09-09T03:45:15;22.50;86.90
53520;DHT22;39397;53.204;5.778;2022-09-09T03:47:41;22.40;86.70
53520;DHT22;39397;53.204;5.778;2022-09-09T03:50:08;22.40;86.90
53520;DHT22;39397;53.204;5.778;2022-09-09T03:52:39;22.50;86.50
53520;DHT22;39397;53.204;5.778;2022-09-09T03:55:06;22.50;87.00
53520;DHT22;39397;53.204;5.778;2022-09-09T03:57:32;22.40;86.50
53520;DHT22;39397;53.204;5.778;2022-09-09T04:00:04;22.50;87.00
53520;DHT22;39397;53.204;5.778;2022-09-09T04:02:30;22.50;86.80
53520;DHT22;39397;53.204;5.778;2022-09-09T04:04:56;22.40;86.80
53520;DHT22;39397;53.204;5.778;2022-09-09T04:07:22;22.40;86.80
53520;DHT22;39397;53.204;5.778;2022-09-09T04:09:47;22.40;86.80
53520;DHT22;39397;53.204;5.778;2022-09-09T04:12:13;22.40;86.80
53520;DHT22;39397;53.204;5.778;2022-09-09T04:14:39;22.40;86.90
53520;DHT22;39397;53.204;5.778;2022-09-09T04:17:05;22.50;86.90
53520;DHT22;39397;53.204;5.778;2022-09-09T04:19:32;22.40;86.90
53520;DHT22;39397;53.204;5.778;2022-09-09T04:21:58;22.50;86.90
53520;DHT22;39397;53.204;5.778;2022-09-09T04:24:24;24.70;88.00
53520;DHT22;39397;53.204;5.778;2022-09-09T04:26:50;22.40;86.90
53520;DHT22;39397;53.204;5.778;2022-09-09T04:29:16;22.40;86.80
53520;DHT22;39397;53.204;5.778;2022-09-09T04:31:42;22.40;86.80
53520;DHT22;39397;53.204;5.778;2022-09-09T04:34:09;22.40;86.90
53520;DHT22;39397;53.204;5.778;2022-09-09T04:36:35;22.40;86.90
53520;DHT22;39397;53.204;5.778;2022-09-09T04:39:02;22.40;86.90
53520;DHT22;39397;53.204;5.778;2022-09-09T04:41:28;22.50;86.80
53520;DHT22;39397;53.204;5.778;2022-09-09T04:43:54;22.40;86.80
53520;DHT22;39397;53.204;5.778;2022-09-09T04:46:21;22.40;86.80
53520;DHT22;39397;53.204;5.778;2022-09-09T04:48:49;22.40;86.80
53520;DHT22;39397;53.204;5.778;2022-09-09T04:51:15;22.40;86.80
53520;DHT22;39397;53.204;5.778;2022-09-09T04:53:40;22.50;86.80
53520;DHT22;39397;53.204;5.778;2022-09-09T04:56:12;22.50;86.80
53520;DHT22;39397;53.204;5.778;2022-09-09T04:58:39;22.40;87.00
53520;DHT22;39397;53.204;5.778;2022-09-09T05:01:13;22.30;86.80
53520;DHT22;39397;53.204;5.778;2022-09-09T05:03:40;22.30;86.80
53520;DHT22;39397;53.204;5.778;2022-09-09T05:06:17;22.30;86.80
53520;DHT22;39397;53.204;5.778;2022-09-09T05:08:43;22.20;86.90
53520;DHT22;39397;53.204;5.778;2022-09-09T05:13:45;22.30;86.00
53520;DHT22;39397;53.204;5.778;2022-09-09T05:16:12;22.30;86.90
53520;DHT22;39397;53.204;5.778;2022-09-09T05:18:39;22.30;86.80
53520;DHT22;39397;53.204;5.778;2022-09-09T05:21:05;22.30;86.90
53520;DHT22;39397;53.204;5.778;2022-09-09T05:23:30;22.30;86.80
53520;DHT22;39397;53.204;5.778;2022-09-09T05:25:57;22.30;86.70
53520;DHT22;39397;53.204;5.778;2022-09-09T05:28:24;22.40;86.80
53520;DHT22;39397;53.204;5.778;2022-09-09T05:31:02;22.40;86.80
53520;DHT22;39397;53.204;5.778;2022-09-09T05:33:34;22.30;85.40
53520;DHT22;39397;53.204;5.778;2022-09-09T05:36:05;22.40;86.80
53520;DHT22;39397;53.204;5.778;2022-09-09T05:38:33;22.30;86.50
53520;DHT22;39397;53.204;5.778;2022-09-09T05:41:01;22.40;86.70
53520;DHT22;39397;53.204;5.778;2022-09-09T05:43:28;22.40;86.80
53520;DHT22;39397;53.204;5.778;2022-09-09T05:46:08;22.40;86.90
53520;DHT22;39397;53.204;5.778;2022-09-09T05:48:36;22.30;85.40
53520;DHT22;39397;53.204;5.778;2022-09-09T05:51:03;22.30;86.80
53520;DHT22;39397;53.204;5.778;2022-09-09T05:53:30;22.30;86.70
53520;DHT22;39397;53.204;5.778;2022-09-09T05:56:05;22.30;86.80
53520;DHT22;39397;53.204;5.778;2022-09-09T05:58:32;22.50;87.00
53520;DHT22;39397;53.204;5.778;2022-09-09T06:01:12;22.50;86.90
53520;DHT22;39397;53.204;5.778;2022-09-09T06:03:40;22.40;86.90
53520;DHT22;39397;53.204;5.778;2022-09-09T06:06:12;22.40;86.80
53520;DHT22;39397;53.204;5.778;2022-09-09T06:08:40;22.40;86.90
53520;DHT22;39397;53.204;5.778;2022-09-09T06:11:16;22.40;86.70
53520;DHT22;39397;53.204;5.778;2022-09-09T06:13:43;22.60;85.90
53520;DHT22;39397;53.204;5.778;2022-09-09T06:16:11;22.40;86.70
53520;DHT22;39397;53.204;5.778;2022-09-09T06:18:37;22.40;86.70
53520;DHT22;39397;53.204;5.778;2022-09-09T06:21:05;22.40;86.90
53520;DHT22;39397;53.204;5.778;2022-09-09T06:23:35;22.40;86.60
53520;DHT22;39397;53.204;5.778;2022-09-09T06:26:10;22.40;86.50
53520;DHT22;39397;53.204;5.778;2022-09-09T06:28:36;22.50;86.70
53520;DHT22;39397;53.204;5.778;2022-09-09T06:31:05;22.40;86.40
53520;DHT22;39397;53.204;5.778;2022-09-09T06:33:32;22.40;86.30
53520;DHT22;39397;53.204;5.778;2022-09-09T06:36:00;22.40;86.50
53520;DHT22;39397;53.204;5.778;2022-09-09T06:38:26;22.40;86.30
53520;DHT22;39397;53.204;5.778;2022-09-09T06:40:55;22.40;86.40
53520;DHT22;39397;53.204;5.778;2022-09-09T06:43:22;22.40;86.40
53520;DHT22;39397;53.204;5.778;2022-09-09T06:45:55;22.40;86.40
53520;DHT22;39397;53.204;5.778;2022-09-09T06:48:21;22.50;86.50
53520;DHT22;39397;53.204;5.778;2022-09-09T06:50:46;22.60;86.30
53520;DHT22;39397;53.204;5.778;2022-09-09T06:53:16;22.60;86.30
53520;DHT22;39397;53.204;5.778;2022-09-09T06:55:42;22.50;86.40
53520;DHT22;39397;53.204;5.778;2022-09-09T06:58:09;22.50;86.20
53520;DHT22;39397;53.204;5.778;2022-09-09T07:00:35;22.50;86.20
53520;DHT22;39397;53.204;5.778;2022-09-09T07:03:12;22.60;86.20
53520;DHT22;39397;53.204;5.778;2022-09-09T07:05:37;22.50;86.00
53520;DHT22;39397;53.204;5.778;2022-09-09T07:08:03;22.50;86.00
53520;DHT22;39397;53.204;5.778;2022-09-09T07:10:29;22.50;86.00
53520;DHT22;39397;53.204;5.778;2022-09-09T07:12:54;22.60;86.00
53520;DHT22;39397;53.204;5.778;2022-09-09T07:15:20;22.50;85.90
53520;DHT22;39397;53.204;5.778;2022-09-09T07:17:47;22.70;85.90
53520;DHT22;39397;53.204;5.778;2022-09-09T07:20:14;22.60;86.00
53520;DHT22;39397;53.204;5.778;2022-09-09T07:22:40;22.60;85.80
53520;DHT22;39397;53.204;5.778;2022-09-09T07:25:07;22.60;85.80
53520;DHT22;39397;53.204;5.778;2022-09-09T07:27:33;22.60;85.30
53520;DHT22;39397;53.204;5.778;2022-09-09T07:29:59;22.60;85.80
53520;DHT22;39397;53.204;5.778;2022-09-09T07:32:25;22.70;85.80
53520;DHT22;39397;53.204;5.778;2022-09-09T07:34:53;22.60;85.80
53520;DHT22;39397;53.204;5.778;2022-09-09T07:37:19;22.70;85.60
53520;DHT22;39397;53.204;5.778;2022-09-09T07:39:44;22.60;85.70
53520;DHT22;39397;53.204;5.778;2022-09-09T07:42:10;22.60;85.80
53520;DHT22;39397;53.204;5.778;2022-09-09T07:44:37;22.60;85.80
53520;DHT22;39397;53.204;5.778;2022-09-09T07:47:05;22.70;85.80
53520;DHT22;39397;53.204;5.778;2022-09-09T07:49:31;22.60;85.70
53520;DHT22;39397;53.204;5.778;2022-09-09T07:51:58;22.60;85.70
53520;DHT22;39397;53.204;5.778;2022-09-09T07:54:24;22.70;85.70
53520;DHT22;39397;53.204;5.778;2022-09-09T07:56:51;22.70;85.60
53520;DHT22;39397;53.204;5.778;2022-09-09T07:59:17;22.70;85.70
53520;DHT22;39397;53.204;5.778;2022-09-09T08:01:49;22.70;85.50
53520;DHT22;39397;53.204;5.778;2022-09-09T08:04:19;22.70;84.10
53520;DHT22;39397;53.204;5.778;2022-09-09T08:06:48;22.70;85.60
53520;DHT22;39397;53.204;5.778;2022-09-09T08:09:15;22.70;85.60
53520;DHT22;39397;53.204;5.778;2022-09-09T08:11:42;22.80;85.60
53520;DHT22;39397;53.204;5.778;2022-09-09T08:14:09;22.80;85.60
53520;DHT22;39397;53.204;5.778;2022-09-09T08:16:38;22.80;85.50
53520;DHT22;39397;53.204;5.778;2022-09-09T08:19:05;22.80;85.60
53520;DHT22;39397;53.204;5.778;2022-09-09T08:21:33;22.80;85.40
53520;DHT22;39397;53.204;5.778;2022-09-09T08:24:00;22.90;85.50
53520;DHT22;39397;53.204;5.778;2022-09-09T08:26:32;22.90;85.30
53520;DHT22;39397;53.204;5.778;2022-09-09T08:28:59;22.80;85.40
53520;DHT22;39397;53.204;5.778;2022-09-09T08:31:36;22.90;85.30
53520;DHT22;39397;53.204;5.778;2022-09-09T08:34:04;23.00;83.90
53520;DHT22;39397;53.204;5.778;2022-09-09T08:36:32;22.90;85.20
53520;DHT22;39397;53.204;5.778;2022-09-09T08:38:59;22.90;85.20
53520;DHT22;39397;53.204;5.778;2022-09-09T08:55:35;23.00;85.10
53520;DHT22;39397;53.204;5.778;2022-09-09T08:57:59;23.00;85.00
53520;DHT22;39397;53.204;5.778;2022-09-09T09:00:37;23.00;84.90
53520;DHT22;39397;53.204;5.778;2022-09-09T09:03:19;23.10;84.90
53520;DHT22;39397;53.204;5.778;2022-09-09T09:11:33;23.30;83.40
53520;DHT22;39397;53.204;5.778;2022-09-09T09:14:23;23.30;84.80
53520;DHT22;39397;53.204;5.778;2022-09-09T09:17:00;23.20;83.30
53520;DHT22;39397;53.204;5.778;2022-09-09T09:19:28;23.10;84.90
53520;DHT22;39397;53.204;5.778;2022-09-09T09:27:34;23.20;83.30
53520;DHT22;39397;53.204;5.778;2022-09-09T09:30:12;23.30;85.00
53520;DHT22;39397;53.204;5.778;2022-09-09T09:32:42;23.30;84.60
53520;DHT22;39397;53.204;5.778;2022-09-09T09:35:12;23.20;84.80
53520;DHT22;39397;53.204;5.778;2022-09-09T09:37:40;23.30;84.80
53520;DHT22;39397;53.204;5.778;2022-09-09T09:40:11;23.30;84.70
53520;DHT22;39397;53.204;5.778;2022-09-09T09:42:38;23.30;84.70
53520;DHT22;39397;53.204;5.778;2022-09-09T09:45:35;23.20;84.70
53520;DHT22;39397;53.204;5.778;2022-09-09T09:48:11;23.30;83.60
53520;DHT22;39397;53.204;5.778;2022-09-09T09:55:56;23.30;85.10
53520;DHT22;39397;53.204;5.778;2022-09-09T09:58:23;23.40;85.10
53520;DHT22;39397;53.204;5.778;2022-09-09T10:00:52;23.20;85.00
53520;DHT22;39397;53.204;5.778;2022-09-09T10:03:36;23.40;85.00
53520;DHT22;39397;53.204;5.778;2022-09-09T10:06:05;23.40;85.10
53520;DHT22;39397;53.204;5.778;2022-09-09T10:08:43;23.30;85.10
53520;DHT22;39397;53.204;5.778;2022-09-09T10:19:36;23.30;83.70
53520;DHT22;39397;53.204;5.778;2022-09-09T10:24:50;23.40;83.60
53520;DHT22;39397;53.204;5.778;2022-09-09T10:32:51;23.50;83.60
53520;DHT22;39397;53.204;5.778;2022-09-09T10:38:17;23.40;84.60
53520;DHT22;39397;53.204;5.778;2022-09-09T10:49:35;23.40;83.20
53520;DHT22;39397;53.204;5.778;2022-09-09T10:52:23;23.50;83.00
53520;DHT22;39397;53.204;5.778;2022-09-09T10:55:18;23.40;82.90
53520;DHT22;39397;53.204;5.778;2022-09-09T10:57:50;23.40;83.00
53520;DHT22;39397;53.204;5.778;2022-09-09T11:00:27;23.40;84.30
53520;DHT22;39397;53.204;5.778;2022-09-09T11:03:05;23.40;84.30
53520;DHT22;39397;53.204;5.778;2022-09-09T11:05:42;25.60;85.40
53520;DHT22;39397;53.204;5.778;2022-09-09T11:08:18;23.40;82.40
53520;DHT22;39397;53.204;5.778;2022-09-09T11:17:18;23.40;82.70
53520;DHT22;39397;53.204;5.778;2022-09-09T11:19:45;23.30;82.50
53520;DHT22;39397;53.204;5.778;2022-09-09T11:22:33;23.40;83.90
53520;DHT22;39397;53.204;5.778;2022-09-09T11:36:24;23.50;82.60
53520;DHT22;39397;53.204;5.778;2022-09-09T11:41:36;23.30;82.10
53520;DHT22;39397;53.204;5.778;2022-09-09T11:44:11;23.50;83.70
53520;DHT22;39397;53.204;5.778;2022-09-09T11:46:38;23.40;83.70
53520;DHT22;39397;53.204;5.778;2022-09-09T11:49:41;23.40;83.50
53520;DHT22;39397;53.204;5.778;2022-09-09T11:52:37;23.50;82.00
53520;DHT22;39397;53.204;5.778;2022-09-09T12:03:05;23.40;83.40
53520;DHT22;39397;53.204;5.778;2022-09-09T12:05:42;23.40;83.40
53520;DHT22;39397;53.204;5.778;2022-09-09T12:08:15;23.60;83.60
53520;DHT22;39397;53.204;5.778;2022-09-09T12:10:56;23.60;83.50
53520;DHT22;39397;53.204;5.778;2022-09-09T12:13:24;23.50;83.50
53520;DHT22;39397;53.204;5.778;2022-09-09T12:15:56;23.50;83.40
53520;DHT22;39397;53.204;5.778;2022-09-09T12:21:04;23.60;82.00
53520;DHT22;39397;53.204;5.778;2022-09-09T12:23:57;23.40;81.70
53520;DHT22;39397;53.204;5.778;2022-09-09T12:26:43;23.50;82.80
53520;DHT22;39397;53.204;5.778;2022-09-09T12:32:23;23.50;83.70
53520;DHT22;39397;53.204;5.778;2022-09-09T12:34:52;23.50;82.20
53520;DHT22;39397;53.204;5.778;2022-09-09T12:40:32;23.60;82.40
53520;DHT22;39397;53.204;5.778;2022-09-09T12:43:01;23.50;83.80
53520;DHT22;39397;53.204;5.778;2022-09-09T12:45:31;23.60;83.70
53520;DHT22;39397;53.204;5.778;2022-09-09T12:48:03;23.50;83.70
53520;DHT22;39397;53.204;5.778;2022-09-09T12:50:34;23.70;83.80
53520;DHT22;39397;53.204;5.778;2022-09-09T12:53:25;23.60;83.70
53520;DHT22;39397;53.204;5.778;2022-09-09T12:56:00;23.70;82.60
53520;DHT22;39397;53.204;5.778;2022-09-09T12:58:28;23.70;84.20
53520;DHT22;39397;53.204;5.778;2022-09-09T13:00:59;23.60;84.00
53520;DHT22;39397;53.204;5.778;2022-09-09T13:03:26;23.70;84.00
53520;DHT22;39397;53.204;5.778;2022-09-09T13:05:53;23.70;84.20
53520;DHT22;39397;53.204;5.778;2022-09-09T13:08:19;23.70;84.20
53520;DHT22;39397;53.204;5.778;2022-09-09T13:11:01;23.70;84.30
53520;DHT22;39397;53.204;5.778;2022-09-09T13:13:35;23.70;83.10
53520;DHT22;39397;53.204;5.778;2022-09-09T13:16:02;23.70;84.50
53520;DHT22;39397;53.204;5.778;2022-09-09T13:18:32;23.70;84.30
53520;DHT22;39397;53.204;5.778;2022-09-09T13:20:59;23.60;84.10
53520;DHT22;39397;53.204;5.778;2022-09-09T13:23:33;23.60;84.00
53520;DHT22;39397;53.204;5.778;2022-09-09T13:26:27;23.70;84.30
53520;DHT22;39397;53.204;5.778;2022-09-09T13:29:17;23.70;84.20
53520;DHT22;39397;53.204;5.778;2022-09-09T13:31:43;23.60;84.30
53520;DHT22;39397;53.204;5.778;2022-09-09T13:34:35;23.70;84.20
53520;DHT22;39397;53.204;5.778;2022-09-09T13:37:03;23.70;84.30
53520;DHT22;39397;53.204;5.778;2022-09-09T13:39:33;23.70;84.10
53520;DHT22;39397;53.204;5.778;2022-09-09T13:42:00;23.60;84.00
53520;DHT22;39397;53.204;5.778;2022-09-09T13:44:36;23.60;83.90
53520;DHT22;39397;53.204;5.778;2022-09-09T13:47:05;23.50;83.90
53520;DHT22;39397;53.204;5.778;2022-09-09T13:49:32;23.60;83.70
53520;DHT22;39397;53.204;5.778;2022-09-09T13:52:13;23.60;83.80
53520;DHT22;39397;53.204;5.778;2022-09-09T13:54:42;23.70;82.60
53520;DHT22;39397;53.204;5.778;2022-09-09T13:57:34;23.60;84.00
53520;DHT22;39397;53.204;5.778;2022-09-09T14:00:01;23.70;84.50
53520;DHT22;39397;53.204;5.778;2022-09-09T14:02:26;23.60;84.30
53520;DHT22;39397;53.204;5.778;2022-09-09T14:04:52;23.70;84.60
53520;DHT22;39397;53.204;5.778;2022-09-09T14:07:20;23.70;84.60
53520;DHT22;39397;53.204;5.778;2022-09-09T14:09:46;23.80;84.70
53520;DHT22;39397;53.204;5.778;2022-09-09T14:12:17;23.70;83.40
53520;DHT22;39397;53.204;5.778;2022-09-09T14:14:43;23.80;84.90
53520;DHT22;39397;53.204;5.778;2022-09-09T14:17:09;23.70;84.80
53520;DHT22;39397;53.204;5.778;2022-09-09T14:19:35;23.70;84.70
53520;DHT22;39397;53.204;5.778;2022-09-09T14:22:03;23.70;84.40
53520;DHT22;39397;53.204;5.778;2022-09-09T14:24:29;23.70;84.40
53520;DHT22;39397;53.204;5.778;2022-09-09T14:26:55;23.80;84.40
53520;DHT22;39397;53.204;5.778;2022-09-09T14:29:21;23.80;84.40
53520;DHT22;39397;53.204;5.778;2022-09-09T14:31:46;23.70;84.20
53520;DHT22;39397;53.204;5.778;2022-09-09T14:34:13;23.80;84.20
53520;DHT22;39397;53.204;5.778;2022-09-09T14:36:40;23.80;84.40
53520;DHT22;39397;53.204;5.778;2022-09-09T14:39:07;23.80;84.30
53520;DHT22;39397;53.204;5.778;2022-09-09T14:41:32;23.80;84.10
53520;DHT22;39397;53.204;5.778;2022-09-09T14:43:59;23.80;84.00
53520;DHT22;39397;53.204;5.778;2022-09-09T14:46:25;23.70;83.80
53520;DHT22;39397;53.204;5.778;2022-09-09T14:48:52;23.70;83.70
53520;DHT22;39397;53.204;5.778;2022-09-09T14:51:22;23.60;83.70
53520;DHT22;39397;53.204;5.778;2022-09-09T14:53:51;23.60;84.60
53520;DHT22;39397;53.204;5.778;2022-09-09T14:56:20;23.60;83.90
53520;DHT22;39397;53.204;5.778;2022-09-09T14:58:47;23.60;84.00
53520;DHT22;39397;53.204;5.778;2022-09-09T15:01:16;23.50;84.00
53520;DHT22;39397;53.204;5.778;2022-09-09T15:03:44;23.50;84.20
53520;DHT22;39397;53.204;5.778;2022-09-09T15:06:14;23.50;84.10
53520;DHT22;39397;53.204;5.778;2022-09-09T15:08:42;23.40;84.10
53520;DHT22;39397;53.204;5.778;2022-09-09T15:11:08;23.60;84.20
53520;DHT22;39397;53.204;5.778;2022-09-09T15:13:34;23.40;84.10
53520;DHT22;39397;53.204;5.778;2022-09-09T15:16:14;23.50;84.20
53520;DHT22;39397;53.204;5.778;2022-09-09T15:18:40;23.50;82.80
53520;DHT22;39397;53.204;5.778;2022-09-09T15:21:16;23.50;84.40
53520;DHT22;39397;53.204;5.778;2022-09-09T15:23:43;23.60;84.60
53520;DHT22;39397;53.204;5.778;2022-09-09T15:26:09;23.60;84.50
53520;DHT22;39397;53.204;5.778;2022-09-09T15:28:37;23.60;84.60
53520;DHT22;39397;53.204;5.778;2022-09-09T15:31:09;23.60;84.90
53520;DHT22;39397;53.204;5.778;2022-09-09T15:33:36;23.70;85.10
53520;DHT22;39397;53.204;5.778;2022-09-09T15:36:24;23.70;85.00
53520;DHT22;39397;53.204;5.778;2022-09-09T15:38:51;23.80;85.40
53520;DHT22;39397;53.204;5.778;2022-09-09T15:41:18;23.60;85.20
53520;DHT22;39397;53.204;5.778;2022-09-09T15:43:45;23.60;85.30
53520;DHT22;39397;53.204;5.778;2022-09-09T15:48:44;23.70;85.90
53520;DHT22;39397;53.204;5.778;2022-09-09T15:51:10;23.70;85.70
53520;DHT22;39397;53.204;5.778;2022-09-09T15:53:37;23.60;85.70
53520;DHT22;39397;53.204;5.778;2022-09-09T15:56:05;23.60;85.50
53520;DHT22;39397;53.204;5.778;2022-09-09T15:58:33;23.60;85.40
53520;DHT22;39397;53.204;5.778;2022-09-09T16:01:06;23.70;85.60
53520;DHT22;39397;53.204;5.778;2022-09-09T16:03:36;23.70;85.80
53520;DHT22;39397;53.204;5.778;2022-09-09T16:06:02;23.70;85.60
53520;DHT22;39397;53.204;5.778;2022-09-09T16:08:36;23.70;85.40
53520;DHT22;39397;53.204;5.778;2022-09-09T16:11:07;23.70;84.00
53520;DHT22;39397;53.204;5.778;2022-09-09T16:13:38;23.80;85.50
53520;DHT22;39397;53.204;5.778;2022-09-09T16:16:07;23.70;85.20
53520;DHT22;39397;53.204;5.778;2022-09-09T16:21:01;23.70;85.20
53520;DHT22;39397;53.204;5.778;2022-09-09T16:23:27;23.70;85.10
53520;DHT22;39397;53.204;5.778;2022-09-09T16:25:56;23.70;85.00
53520;DHT22;39397;53.204;5.778;2022-09-09T16:28:22;23.70;85.20
53520;DHT22;39397;53.204;5.778;2022-09-09T16:30:48;23.60;85.00
53520;DHT22;39397;53.204;5.778;2022-09-09T16:33:15;23.70;85.10
53520;DHT22;39397;53.204;5.778;2022-09-09T16:35:41;23.70;85.00
53520;DHT22;39397;53.204;5.778;2022-09-09T16:38:07;23.70;84.70
53520;DHT22;39397;53.204;5.778;2022-09-09T16:40:36;23.70;85.10
53520;DHT22;39397;53.204;5.778;2022-09-09T16:43:04;23.70;85.40
53520;DHT22;39397;53.204;5.778;2022-09-09T16:45:29;23.60;85.30
53520;DHT22;39397;53.204;5.778;2022-09-09T16:47:55;23.70;85.30
53520;DHT22;39397;53.204;5.778;2022-09-09T16:50:21;23.70;85.20
53520;DHT22;39397;53.204;5.778;2022-09-09T16:52:47;23.60;85.00
53520;DHT22;39397;53.204;5.778;2022-09-09T16:55:13;23.60;85.20
53520;DHT22;39397;53.204;5.778;2022-09-09T16:57:39;23.50;85.20
53520;DHT22;39397;53.204;5.778;2022-09-09T17:00:05;23.60;85.60
53520;DHT22;39397;53.204;5.778;2022-09-09T17:02:32;23.50;84.60
53520;DHT22;39397;53.204;5.778;2022-09-09T17:04:58;23.50;85.20
53520;DHT22;39397;53.204;5.778;2022-09-09T17:07:25;23.50;85.00
53520;DHT22;39397;53.204;5.778;2022-09-09T17:09:50;23.60;84.90
53520;DHT22;39397;53.204;5.778;2022-09-09T17:12:16;23.60;85.00
53520;DHT22;39397;53.204;5.778;2022-09-09T17:14:42;23.60;84.90
53520;DHT22;39397;53.204;5.778;2022-09-09T17:17:08;23.60;84.90
53520;DHT22;39397;53.204;5.778;2022-09-09T17:19:34;23.60;85.00
53520;DHT22;39397;53.204;5.778;2022-09-09T17:22:00;23.70;84.90
53520;DHT22;39397;53.204;5.778;2022-09-09T17:24:26;23.70;84.90
53520;DHT22;39397;53.204;5.778;2022-09-09T17:26:54;23.70;84.90
53520;DHT22;39397;53.204;5.778;2022-09-09T17:29:21;23.60;84.80
53520;DHT22;39397;53.204;5.778;2022-09-09T17:31:46;23.70;84.80
53520;DHT22;39397;53.204;5.778;2022-09-09T17:34:12;23.60;84.60
53520;DHT22;39397;53.204;5.778;2022-09-09T17:36:38;23.70;84.70
53520;DHT22;39397;53.204;5.778;2022-09-09T17:39:05;23.70;84.50
53520;DHT22;39397;53.204;5.778;2022-09-09T17:41:36;23.70;84.70
53520;DHT22;39397;53.204;5.778;2022-09-09T17:44:03;23.70;84.80
53520;DHT22;39397;53.204;5.778;2022-09-09T17:46:34;23.70;84.70
53520;DHT22;39397;53.204;5.778;2022-09-09T17:49:07;23.70;84.70
53520;DHT22;39397;53.204;5.778;2022-09-09T17:51:35;23.70;84.70
53520;DHT22;39397;53.204;5.778;2022-09-09T17:54:03;23.70;84.60
53520;DHT22;39397;53.204;5.778;2022-09-09T17:56:31;23.90;84.70
53520;DHT22;39397;53.204;5.778;2022-09-09T17:58:58;23.70;84.70
53520;DHT22;39397;53.204;5.778;2022-09-09T18:01:30;23.60;84.70
53520;DHT22;39397;53.204;5.778;2022-09-09T18:03:58;23.60;84.80